Time;durP1;ratioP1;P1;durP2;ratioP2;P2;SDS_P1;SDS_P2;PMS_P1;PMS_P2;Temp;Humidity;BMP_temperature;BMP_pressure;BME280_temperature;BME280_humidity;BME280_pressure;Samples;Min_cycle;Max_cycle;Signal;HPM_P1;HPM_P2
2022/07/12 00:01:39;;;;;;;;;;;;;;;;;;5076314;28;20011;-41
2022/07/12 00:04:04;;;;;;;;;;;;;;;;;;5076523;28;19920;-41
2022/07/12 00:06:29;;;;;;;;;;;;;;;;;;5076245;28;19908;-41
2022/07/12 00:08:54;;;;;;;;;;;;;;;;;;5076038;28;20277;-41
2022/07/12 00:11:19;;;;;;;;;;;;;;;;;;5057636;28;19935;-41
2022/07/12 00:13:44;;;;;;;;;;;;;;;;;;5075997;28;19908;-42
2022/07/12 00:16:09;;;;;;;;;;;;;;;;;;5076034;28;19915;-41
2022/07/12 00:18:34;;;;;;;;;;;;;;;;;;5075597;28;19915;-41
2022/07/12 00:21:00;;;;;;;;;;;;;;;;;;5075779;28;19962;-41
2022/07/12 00:23:25;;;;;;;;;;;;;;;;;;5075657;28;19913;-40
2022/07/12 00:25:50;;;;;;;;;;;;;;;;;;5057482;28;20049;-40
2022/07/12 00:28:15;;;;;;;;;;;;;;;;;;5075367;28;20023;-40
2022/07/12 00:30:40;;;;;;;;;;;;;;;;;;5075441;28;20003;-41
2022/07/12 00:33:05;;;;;;;;;;;;;;;;;;5075522;28;19916;-41
2022/07/12 00:35:30;;;;;;;;;;;;;;;;;;5075117;28;19996;-40
2022/07/12 00:37:55;;;;;;;;;;;;;;;;;;5057398;28;19954;-40
2022/07/12 00:40:20;;;;;;;;;;;;;;;;;;5075389;28;19930;-41
2022/07/12 00:42:46;;;;;;;;;;;;;;;;;;5075192;28;19915;-42
2022/07/12 00:45:11;;;;;;;;;;;;;;;;;;5075209;28;20378;-41
2022/07/12 00:47:40;;;;;;;;;;;;;;;;;;5075052;28;20275;-41
2022/07/12 00:50:05;;;;;;;;;;;;;;;;;;5074912;28;19913;-41
2022/07/12 00:52:30;;;;;;;;;;;;;;;;;;5075503;28;19992;-41
2022/07/12 00:54:55;;;;;;;;;;;;;;;;;;5074966;28;19909;-41
2022/07/12 00:57:20;;;;;;;;;;;;;;;;;;5074970;28;19908;-41
2022/07/12 00:59:45;;;;;;;;;;;;;;;;;;5074687;28;20015;-41
2022/07/12 01:02:11;;;;;;;;;;;;;;;;;;5074874;28;20378;-41
2022/07/12 01:04:36;;;;;;;;;;;;;;;;;;5074808;28;20268;-42
2022/07/12 01:07:01;;;;;;;;;;;;;;;;;;5074887;28;19955;-41
2022/07/12 01:09:26;;;;;;;;;;;;;;;;;;5074809;28;20030;-41
2022/07/12 01:11:51;;;;;;;;;;;;;;;;;;5074776;28;20054;-41
2022/07/12 01:14:16;;;;;;;;;;;;;;;;;;5075051;28;19997;-42
2022/07/12 01:16:41;;;;;;;;;;;;;;;;;;5074891;28;20275;-41
2022/07/12 01:19:06;;;;;;;;;;;;;;;;;;5074863;28;19917;-40
2022/07/12 01:21:32;;;;;;;;;;;;;;;;;;5074865;28;19908;-41
2022/07/12 01:23:57;;;;;;;;;;;;;;;;;;5074678;28;20256;-40
2022/07/12 01:26:22;;;;;;;;;;;;;;;;;;5074947;28;19915;-40
2022/07/12 01:28:47;;;;;;;;;;;;;;;;;;5074908;28;19923;-41
2022/07/12 01:31:12;;;;;;;;;;;;;;;;;;5074710;28;19915;-41
2022/07/12 01:33:37;;;;;;;;;;;;;;;;;;5074382;28;19908;-40
2022/07/12 01:36:03;;;;;;;;;;;;;;;;;;5075000;28;19908;-40
2022/07/12 01:38:28;;;;;;;;;;;;;;;;;;5074662;28;19977;-40
2022/07/12 01:40:53;;;;;;;;;;;;;;;;;;5074674;28;20382;-41
2022/07/12 01:43:18;;;;;;;;;;;;;;;;;;5074379;28;19915;-40
2022/07/12 01:45:43;;;;;;;;;;;;;;;;;;5074470;28;19905;-40
2022/07/12 01:48:08;;;;;;;;;;;;;;;;;;5074558;28;20004;-41
2022/07/12 01:50:33;;;;;;;;;;;;;;;;;;5074388;28;20318;-41
2022/07/12 01:52:58;;;;;;;;;;;;;;;;;;5074339;28;20432;-41
2022/07/12 01:55:24;;;;;;;;;;;;;;;;;;5074533;28;19915;-41
2022/07/12 01:57:49;;;;;;;;;;;;;;;;;;5074529;28;20377;-42
2022/07/12 02:00:14;;;;;;;;;;;;;;;;;;5056603;28;20003;-40
2022/07/12 02:02:39;;;;;;;;;;;;;;;;;;5074874;28;19908;-41
2022/07/12 02:05:04;;;;;;;;;;;;;;;;;;5078553;28;20248;-40
2022/07/12 02:07:29;;;;;;;;;;;;;;;;;;5078453;28;19909;-40
2022/07/12 02:09:55;;;;;;;;;;;;;;;;;;5078305;28;19952;-42
2022/07/12 02:12:20;;;;;;;;;;;;;;;;;;5078142;28;20331;-41
2022/07/12 02:14:45;;;;;;;;;;;;;;;;;;5077953;28;19958;-40
2022/07/12 02:17:10;;;;;;;;;;;;;;;;;;5077869;28;20298;-41
2022/07/12 02:19:35;;;;;;;;;;;;;;;;;;5077742;28;19913;-41
2022/07/12 02:22:00;;;;;;;;;;;;;;;;;;5077675;28;19912;-40
2022/07/12 02:24:26;;;;;;;;;;;;;;;;;;5077724;28;19909;-40
2022/07/12 02:26:51;;;;;;;;;;;;;;;;;;5077809;28;19958;-40
2022/07/12 02:29:16;;;;;;;;;;;;;;;;;;5077644;28;19944;-41
2022/07/12 02:31:41;;;;;;;;;;;;;;;;;;5078690;28;20351;-40
2022/07/12 02:34:06;;;;;;;;;;;;;;;;;;5077624;28;19928;-40
2022/07/12 02:36:31;;;;;;;;;;;;;;;;;;5077543;28;19951;-40
2022/07/12 02:38:57;;;;;;;;;;;;;;;;;;5077730;28;20404;-41
2022/07/12 02:41:22;;;;;;;;;;;;;;;;;;5077380;28;20007;-41
2022/07/12 02:43:47;;;;;;;;;;;;;;;;;;5077348;28;19916;-40
2022/07/12 02:46:13;;;;;;;;;;;;;;;;;;5077319;28;19947;-41
2022/07/12 02:48:38;;;;;;;;;;;;;;;;;;5077404;28;20001;-41
2022/07/12 02:51:03;;;;;;;;;;;;;;;;;;5077981;28;20365;-40
2022/07/12 02:53:28;;;;;;;;;;;;;;;;;;5077114;28;20321;-40
2022/07/12 02:55:53;;;;;;;;;;;;;;;;;;5077086;28;19912;-41
2022/07/12 02:58:18;;;;;;;;;;;;;;;;;;5076950;28;20264;-40
2022/07/12 03:00:46;;;;;;;;;;;;;;;;;;5077139;28;19908;-41
2022/07/12 03:03:12;;;;;;;;;;;;;;;;;;5076818;28;19970;-41
2022/07/12 03:05:37;;;;;;;;;;;;;;;;;;5076934;28;20279;-42
2022/07/12 03:08:02;;;;;;;;;;;;;;;;;;5076890;28;19910;-40
2022/07/12 03:10:27;;;;;;;;;;;;;;;;;;5076801;28;19916;-41
2022/07/12 03:12:52;;;;;;;;;;;;;;;;;;5076864;28;19912;-40
2022/07/12 03:15:17;;;;;;;;;;;;;;;;;;5076534;28;19908;-41
2022/07/12 03:17:43;;;;;;;;;;;;;;;;;;5076774;28;19962;-41
2022/07/12 03:20:11;;;;;;;;;;;;;;;;;;5076689;28;19965;-40
2022/07/12 03:22:36;;;;;;;;;;;;;;;;;;5076612;28;19966;-41
2022/07/12 03:25:01;;;;;;;;;;;;;;;;;;5076762;28;19912;-41
2022/07/12 03:27:26;;;;;;;;;;;;;;;;;;5076554;28;19962;-41
2022/07/12 03:29:51;;;;;;;;;;;;;;;;;;5076185;28;19942;-40
2022/07/12 03:32:16;;;;;;;;;;;;;;;;;;5058372;28;20244;-40
2022/07/12 03:34:41;;;;;;;;;;;;;;;;;;5076383;28;19961;-40
2022/07/12 03:37:06;;;;;;;;;;;;;;;;;;5076464;28;20351;-41
2022/07/12 03:39:32;;;;;;;;;;;;;;;;;;5077303;28;20363;-40
2022/07/12 03:41:57;;;;;;;;;;;;;;;;;;5076680;28;19916;-41
2022/07/12 03:44:22;;;;;;;;;;;;;;;;;;5076251;28;19908;-40
2022/07/12 03:46:47;;;;;;;;;;;;;;;;;;5076163;28;19913;-41
2022/07/12 03:49:12;;;;;;;;;;;;;;;;;;5075980;28;20373;-41
2022/07/12 03:51:37;;;;;;;;;;;;;;;;;;5076158;28;20266;-40
2022/07/12 03:54:05;;;;;;;;;;;;;;;;;;5076007;28;20031;-40
2022/07/12 03:59:14;;;;;;;;;;;;;;;;;;5075816;28;20333;-40
2022/07/12 04:01:39;;;;;;;;;;;;;;;;;;5076024;28;19908;-41
2022/07/12 04:04:04;;;;;;;;;;;;;;;;;;5075700;28;19920;-40
2022/07/12 04:06:29;;;;;;;;;;;;;;;;;;5075785;28;19934;-41
2022/07/12 04:08:54;;;;;;;;;;;;;;;;;;5075481;28;19919;-41
2022/07/12 04:11:19;;;;;;;;;;;;;;;;;;5075737;28;19912;-40
2022/07/12 04:13:44;;;;;;;;;;;;;;;;;;5057710;28;19908;-41
2022/07/12 04:16:09;;;;;;;;;;;;;;;;;;5075446;28;20360;-41
2022/07/12 04:18:34;;;;;;;;;;;;;;;;;;5075476;28;19908;-41
2022/07/12 04:20:59;;;;;;;;;;;;;;;;;;5075523;28;19908;-41
2022/07/12 04:23:24;;;;;;;;;;;;;;;;;;5075334;28;19909;-42
2022/07/12 04:25:50;;;;;;;;;;;;;;;;;;5074979;28;19908;-42
2022/07/12 04:28:15;;;;;;;;;;;;;;;;;;5075218;28;19908;-41
2022/07/12 04:30:40;;;;;;;;;;;;;;;;;;5075177;28;19908;-41
2022/07/12 04:33:05;;;;;;;;;;;;;;;;;;5075220;28;19916;-41
2022/07/12 04:35:30;;;;;;;;;;;;;;;;;;5075189;28;19912;-40
2022/07/12 04:37:56;;;;;;;;;;;;;;;;;;5075249;28;19908;-41
2022/07/12 04:40:21;;;;;;;;;;;;;;;;;;5075142;28;19908;-40
2022/07/12 04:42:46;;;;;;;;;;;;;;;;;;5075203;28;19912;-41
2022/07/12 04:45:11;;;;;;;;;;;;;;;;;;5075239;28;19919;-40
2022/07/12 04:47:36;;;;;;;;;;;;;;;;;;5075026;28;19958;-40
2022/07/12 04:50:01;;;;;;;;;;;;;;;;;;5075193;28;19966;-41
2022/07/12 04:52:27;;;;;;;;;;;;;;;;;;5075342;28;20267;-42
2022/07/12 04:54:52;;;;;;;;;;;;;;;;;;5075012;28;19966;-40
2022/07/12 04:57:17;;;;;;;;;;;;;;;;;;5057100;28;19920;-40
2022/07/12 04:59:42;;;;;;;;;;;;;;;;;;5075320;28;19908;-40
2022/07/12 05:02:07;;;;;;;;;;;;;;;;;;5075378;28;20381;-41
2022/07/12 05:04:33;;;;;;;;;;;;;;;;;;5074910;28;19924;-41
2022/07/12 05:06:58;;;;;;;;;;;;;;;;;;5074998;28;19935;-40
2022/07/12 05:09:23;;;;;;;;;;;;;;;;;;5074805;28;19935;-41
2022/07/12 05:11:48;;;;;;;;;;;;;;;;;;5074913;28;19931;-41
2022/07/12 05:14:13;;;;;;;;;;;;;;;;;;5074781;28;19909;-40
2022/07/12 05:16:38;;;;;;;;;;;;;;;;;;5074806;28;19918;-42
2022/07/12 05:19:04;;;;;;;;;;;;;;;;;;5075344;28;19962;-41
2022/07/12 05:21:29;;;;;;;;;;;;;;;;;;5053885;28;19978;-41
2022/07/12 05:23:54;;;;;;;;;;;;;;;;;;5054627;28;19955;-40
2022/07/12 05:26:19;;;;;;;;;;;;;;;;;;5054419;28;19909;-41
2022/07/12 05:28:44;;;;;;;;;;;;;;;;;;5044328;28;20268;-41
2022/07/12 05:31:09;;;;;;;;;;;;;;;;;;5041444;28;19976;-41
2022/07/12 05:33:35;;;;;;;;;;;;;;;;;;5044670;28;20437;-41
2022/07/12 05:36:01;;;;;;;;;;;;;;;;;;5045349;28;19917;-40
2022/07/12 05:38:26;;;;;;;;;;;;;;;;;;5049911;28;19914;-41
2022/07/12 05:40:51;;;;;;;;;;;;;;;;;;5052693;28;19909;-41
2022/07/12 05:43:16;;;;;;;;;;;;;;;;;;5052367;28;19921;-41
2022/07/12 05:45:42;;;;;;;;;;;;;;;;;;5052041;28;19913;-41
2022/07/12 05:48:07;;;;;;;;;;;;;;;;;;5050883;28;19966;-40
2022/07/12 05:50:32;;;;;;;;;;;;;;;;;;5048646;28;19917;-41
2022/07/12 05:55:41;;;;;;;;;;;;;;;;;;5043286;28;19974;-41
2022/07/12 05:58:06;;;;;;;;;;;;;;;;;;5044259;28;20301;-41
2022/07/12 06:00:32;;;;;;;;;;;;;;;;;;5045595;28;19920;-41
2022/07/12 06:02:57;;;;;;;;;;;;;;;;;;5049021;28;20348;-41
2022/07/12 06:05:22;;;;;;;;;;;;;;;;;;5040734;28;20028;-41
2022/07/12 06:07:47;;;;;;;;;;;;;;;;;;5023883;28;19927;-41
2022/07/12 06:10:12;;;;;;;;;;;;;;;;;;5032177;28;19925;-42
2022/07/12 06:12:38;;;;;;;;;;;;;;;;;;5043802;28;19920;-41
2022/07/12 06:15:03;;;;;;;;;;;;;;;;;;5040331;28;19927;-42
2022/07/12 06:17:28;;;;;;;;;;;;;;;;;;5031700;28;20576;-42
2022/07/12 06:19:53;;;;;;;;;;;;;;;;;;5031242;28;19921;-43
2022/07/12 06:22:18;;;;;;;;;;;;;;;;;;5021824;28;19920;-41
2022/07/12 06:24:43;;;;;;;;;;;;;;;;;;5002714;28;20655;-41
2022/07/12 06:27:09;;;;;;;;;;;;;;;;;;5013735;28;19921;-41
2022/07/12 06:29:34;;;;;;;;;;;;;;;;;;4987780;28;20050;-41
2022/07/12 06:31:59;;;;;;;;;;;;;;;;;;4938688;28;20484;-41
2022/07/12 06:34:24;;;;;;;;;;;;;;;;;;4932382;28;19957;-41
2022/07/12 06:36:49;;;;;;;;;;;;;;;;;;4942417;28;20465;-42
2022/07/12 06:39:14;;;;;;;;;;;;;;;;;;4928447;28;20214;-42
2022/07/12 06:41:39;;;;;;;;;;;;;;;;;;4939469;28;19921;-42
2022/07/12 06:44:04;;;;;;;;;;;;;;;;;;4959220;28;19964;-42
2022/07/12 06:46:29;;;;;;;;;;;;;;;;;;4946434;28;19921;-41
2022/07/12 06:48:54;;;;;;;;;;;;;;;;;;4938409;28;20012;-42
2022/07/12 06:51:20;;;;;;;;;;;;;;;;;;4964310;28;19921;-42
2022/07/12 06:53:45;;;;;;;;;;;;;;;;;;4980776;28;19952;-42
2022/07/12 06:56:10;;;;;;;;;;;;;;;;;;4990808;28;21579;-42
2022/07/12 06:58:35;;;;;;;;;;;;;;;;;;5011578;28;19963;-41
2022/07/12 07:01:00;;;;;;;;;;;;;;;;;;5007805;28;20071;-42
2022/07/12 07:03:25;;;;;;;;;;;;;;;;;;5023732;28;19925;-42
2022/07/12 07:05:51;;;;;;;;;;;;;;;;;;5022645;28;20257;-42
2022/07/12 07:08:16;;;;;;;;;;;;;;;;;;5025089;28;19920;-41
2022/07/12 07:10:41;;;;;;;;;;;;;;;;;;5038322;28;19963;-42
2022/07/12 07:13:06;;;;;;;;;;;;;;;;;;5031532;28;19920;-42
2022/07/12 07:15:31;;;;;;;;;;;;;;;;;;5029275;28;19917;-42
2022/07/12 07:17:56;;;;;;;;;;;;;;;;;;5024988;28;19987;-42
2022/07/12 07:20:21;;;;;;;;;;;;;;;;;;5038854;28;20272;-43
2022/07/12 07:22:47;;;;;;;;;;;;;;;;;;5034650;28;19995;-42
2022/07/12 07:25:12;;;;;;;;;;;;;;;;;;5041703;28;20414;-42
2022/07/12 07:27:38;;;;;;;;;;;;;;;;;;5030123;28;19917;-42
2022/07/12 07:32:47;;;;;;;;;;;;;;;;;;5038069;28;19982;-43
2022/07/12 07:35:13;;;;;;;;;;;;;;;;;;5035868;28;20360;-43
2022/07/12 07:37:38;;;;;;;;;;;;;;;;;;5017820;28;19976;-42
2022/07/12 07:40:03;;;;;;;;;;;;;;;;;;5034179;28;20494;-42
2022/07/12 07:42:28;;;;;;;;;;;;;;;;;;5021491;28;19928;-43
2022/07/12 07:44:53;;;;;;;;;;;;;;;;;;5033632;28;19964;-41
2022/07/12 07:47:18;;;;;;;;;;;;;;;;;;5020054;28;20636;-44
2022/07/12 07:49:43;;;;;;;;;;;;;;;;;;5030619;28;20027;-42
2022/07/12 07:52:08;;;;;;;;;;;;;;;;;;5026589;28;19921;-41
2022/07/12 07:54:34;;;;;;;;;;;;;;;;;;5022293;28;19913;-43
2022/07/12 07:56:59;;;;;;;;;;;;;;;;;;5027674;28;19913;-41
2022/07/12 07:59:24;;;;;;;;;;;;;;;;;;5030899;28;19921;-40
2022/07/12 08:01:52;;;;;;;;;;;;;;;;;;5023560;28;20647;-44
2022/07/12 08:04:18;;;;;;;;;;;;;;;;;;5055052;22;20315;-41
2022/07/12 08:06:43;;;;;;;;;;;;;;;;;;5040781;28;20437;-42
2022/07/12 08:09:08;;;;;;;;;;;;;;;;;;5044135;28;19978;-41
2022/07/12 08:11:33;;;;;;;;;;;;;;;;;;5042803;28;19927;-41
2022/07/12 08:13:58;;;;;;;;;;;;;;;;;;5039412;28;20314;-41
2022/07/12 08:16:23;;;;;;;;;;;;;;;;;;5043338;28;19920;-42
2022/07/12 08:18:49;;;;;;;;;;;;;;;;;;5050979;28;19964;-41
2022/07/12 08:21:14;;;;;;;;;;;;;;;;;;5035261;28;19935;-42
2022/07/12 08:23:39;;;;;;;;;;;;;;;;;;5041852;28;20391;-41
2022/07/12 08:26:04;;;;;;;;;;;;;;;;;;5039149;28;20587;-41
2022/07/12 08:28:29;;;;;;;;;;;;;;;;;;5045848;28;19995;-41
2022/07/12 08:30:55;;;;;;;;;;;;;;;;;;5043188;28;19952;-41
2022/07/12 08:33:20;;;;;;;;;;;;;;;;;;5047275;28;20295;-41
2022/07/12 08:35:45;;;;;;;;;;;;;;;;;;5054278;28;19941;-42
2022/07/12 08:38:10;;;;;;;;;;;;;;;;;;5045984;28;19920;-41
2022/07/12 08:40:35;;;;;;;;;;;;;;;;;;5043074;28;20632;-42
2022/07/12 08:43:00;;;;;;;;;;;;;;;;;;5038293;28;19920;-42
2022/07/12 08:45:26;;;;;;;;;;;;;;;;;;5040333;28;19921;-41
2022/07/12 08:47:51;;;;;;;;;;;;;;;;;;5038201;28;19921;-41
2022/07/12 08:50:19;;;;;;;;;;;;;;;;;;5037575;28;20144;-42
2022/07/12 08:52:44;;;;;;;;;;;;;;;;;;5019313;28;20363;-41
2022/07/12 08:55:09;;;;;;;;;;;;;;;;;;5039183;28;19924;-42
2022/07/12 08:57:34;;;;;;;;;;;;;;;;;;5025831;28;20402;-41
2022/07/12 09:00:00;;;;;;;;;;;;;;;;;;5017219;28;20012;-42
2022/07/12 09:02:26;;;;;;;;;;;;;;;;;;5028480;28;23148;-41
2022/07/12 09:04:51;;;;;;;;;;;;;;;;;;5022635;28;19929;-43
2022/07/12 09:07:16;;;;;;;;;;;;;;;;;;5035080;28;20384;-42
2022/07/12 09:09:41;;;;;;;;;;;;;;;;;;5031612;28;19920;-42
2022/07/12 09:12:06;;;;;;;;;;;;;;;;;;5032854;28;20002;-41
2022/07/12 09:14:33;;;;;;;;;;;;;;;;;;5043230;28;19967;-42
2022/07/12 09:16:58;;;;;;;;;;;;;;;;;;5044667;28;19917;-41
2022/07/12 09:19:23;;;;;;;;;;;;;;;;;;5046171;28;21715;-41
2022/07/12 09:21:49;;;;;;;;;;;;;;;;;;5043220;28;19939;-42
2022/07/12 09:24:14;;;;;;;;;;;;;;;;;;5030191;28;19964;-42
2022/07/12 09:26:39;;;;;;;;;;;;;;;;;;5034218;28;20027;-42
2022/07/12 09:29:04;;;;;;;;;;;;;;;;;;5016280;28;20011;-39
2022/07/12 09:31:30;;;;;;;;;;;;;;;;;;5003739;28;19920;-39
2022/07/12 09:36:39;;;;;;;;;;;;;;;;;;5029947;28;20014;-41
2022/07/12 09:39:04;;;;;;;;;;;;;;;;;;5039905;28;19916;-44
2022/07/12 09:41:30;;;;;;;;;;;;;;;;;;5041144;28;19916;-43
2022/07/12 09:43:55;;;;;;;;;;;;;;;;;;5047493;28;19920;-43
2022/07/12 09:46:20;;;;;;;;;;;;;;;;;;5049144;28;19912;-42
2022/07/12 09:48:48;;;;;;;;;;;;;;;;;;5046512;28;20725;-42
2022/07/12 09:51:13;;;;;;;;;;;;;;;;;;5049479;28;20297;-44
2022/07/12 09:53:38;;;;;;;;;;;;;;;;;;5035214;28;19939;-42
2022/07/12 09:56:03;;;;;;;;;;;;;;;;;;5037551;28;20295;-41
2022/07/12 09:58:28;;;;;;;;;;;;;;;;;;5044985;28;19952;-42
2022/07/12 10:00:54;;;;;;;;;;;;;;;;;;5053059;28;19916;-41
2022/07/12 10:03:19;;;;;;;;;;;;;;;;;;5055595;28;19917;-41
2022/07/12 10:05:44;;;;;;;;;;;;;;;;;;5059807;28;19913;-42
2022/07/12 10:08:09;;;;;;;;;;;;;;;;;;5062101;28;19935;-42
2022/07/12 10:10:34;;;;;;;;;;;;;;;;;;5056080;28;20375;-41
2022/07/12 10:13:00;;;;;;;;;;;;;;;;;;5058982;28;19916;-43
2022/07/12 10:18:08;;;;;;;;;;;;;;;;;;5056403;28;20389;-43
2022/07/12 10:20:34;;;;;;;;;;;;;;;;;;5054984;28;19920;-42
2022/07/12 10:23:01;;;;;;;;;;;;;;;;;;5053660;28;19921;-43
2022/07/12 10:25:26;;;;;;;;;;;;;;;;;;5056497;28;20449;-42
2022/07/12 10:27:51;;;;;;;;;;;;;;;;;;5050737;28;19920;-43
2022/07/12 10:30:17;;;;;;;;;;;;;;;;;;5056109;28;19975;-42
2022/07/12 10:32:42;;;;;;;;;;;;;;;;;;5061434;28;20338;-43
2022/07/12 10:35:07;;;;;;;;;;;;;;;;;;5053003;28;20006;-42
2022/07/12 10:37:32;;;;;;;;;;;;;;;;;;5050900;28;19924;-44
2022/07/12 10:39:57;;;;;;;;;;;;;;;;;;5048210;28;19912;-42
2022/07/12 10:42:22;;;;;;;;;;;;;;;;;;5056295;28;19924;-44
2022/07/12 10:44:47;;;;;;;;;;;;;;;;;;5047609;28;19928;-45
2022/07/12 10:47:14;;;;;;;;;;;;;;;;;;5050720;28;19921;-45
2022/07/12 10:49:39;;;;;;;;;;;;;;;;;;5042299;28;19925;-43
2022/07/12 10:52:04;;;;;;;;;;;;;;;;;;5056273;28;19926;-43
2022/07/12 10:54:29;;;;;;;;;;;;;;;;;;5052008;28;24553;-41
2022/07/12 10:56:55;;;;;;;;;;;;;;;;;;5035309;28;20290;-40
2022/07/12 10:59:20;;;;;;;;;;;;;;;;;;5044779;28;19951;-44
2022/07/12 11:01:45;;;;;;;;;;;;;;;;;;5046180;28;19916;-44
2022/07/12 11:04:10;;;;;;;;;;;;;;;;;;5054875;28;19924;-43
2022/07/12 11:06:36;;;;;;;;;;;;;;;;;;5040896;28;19916;-40
2022/07/12 11:09:01;;;;;;;;;;;;;;;;;;5047613;28;20272;-42
2022/07/12 11:11:27;;;;;;;;;;;;;;;;;;5049634;28;20392;-44
2022/07/12 11:13:52;;;;;;;;;;;;;;;;;;5055395;28;19924;-43
2022/07/12 11:16:17;;;;;;;;;;;;;;;;;;5050685;28;19920;-43
2022/07/12 11:18:42;;;;;;;;;;;;;;;;;;5058643;28;19966;-44
2022/07/12 11:21:07;;;;;;;;;;;;;;;;;;5059327;28;19977;-42
2022/07/12 11:23:32;;;;;;;;;;;;;;;;;;5060604;28;20283;-41
2022/07/12 11:25:58;;;;;;;;;;;;;;;;;;5033408;28;20307;-43
2022/07/12 11:28:23;;;;;;;;;;;;;;;;;;5059380;28;19974;-43
2022/07/12 11:30:48;;;;;;;;;;;;;;;;;;5055743;28;20409;-43
2022/07/12 11:33:13;;;;;;;;;;;;;;;;;;5057965;28;19995;-45
2022/07/12 11:35:38;;;;;;;;;;;;;;;;;;5051479;28;19959;-43
2022/07/12 11:38:03;;;;;;;;;;;;;;;;;;5058557;28;20000;-43
2022/07/12 11:40:28;;;;;;;;;;;;;;;;;;5045540;28;19919;-43
2022/07/12 11:42:53;;;;;;;;;;;;;;;;;;5052608;28;19975;-44
2022/07/12 11:45:19;;;;;;;;;;;;;;;;;;5048171;28;19920;-43
2022/07/12 11:47:44;;;;;;;;;;;;;;;;;;5055438;28;19928;-44
2022/07/12 11:50:09;;;;;;;;;;;;;;;;;;5040999;28;19992;-44
2022/07/12 11:52:34;;;;;;;;;;;;;;;;;;5052091;28;19959;-43
2022/07/12 11:55:00;;;;;;;;;;;;;;;;;;5034378;28;20164;-43
2022/07/12 11:57:25;;;;;;;;;;;;;;;;;;5046792;28;19934;-43
2022/07/12 11:59:50;;;;;;;;;;;;;;;;;;5048571;28;20291;-44
2022/07/12 12:02:15;;;;;;;;;;;;;;;;;;5041850;28;19920;-43
2022/07/12 12:04:40;;;;;;;;;;;;;;;;;;5041780;28;19921;-43
2022/07/12 12:07:06;;;;;;;;;;;;;;;;;;5047779;28;19963;-43
2022/07/12 12:09:31;;;;;;;;;;;;;;;;;;5038091;28;20014;-43
2022/07/12 12:11:56;;;;;;;;;;;;;;;;;;5039891;28;20548;-44
2022/07/12 12:14:21;;;;;;;;;;;;;;;;;;5039632;28;19966;-44
2022/07/12 12:16:47;;;;;;;;;;;;;;;;;;5040030;28;19931;-42
2022/07/12 12:19:12;;;;;;;;;;;;;;;;;;5027683;28;19927;-42
2022/07/12 12:21:37;;;;;;;;;;;;;;;;;;5047357;28;20007;-42
2022/07/12 12:24:02;;;;;;;;;;;;;;;;;;5051548;28;19951;-42
2022/07/12 12:26:27;;;;;;;;;;;;;;;;;;5056549;28;19916;-41
2022/07/12 12:28:52;;;;;;;;;;;;;;;;;;5053939;28;19921;-41
2022/07/12 12:31:18;;;;;;;;;;;;;;;;;;5053071;28;19921;-42
2022/07/12 12:33:43;;;;;;;;;;;;;;;;;;5047516;28;19920;-42
2022/07/12 12:36:08;;;;;;;;;;;;;;;;;;5051151;28;20322;-43
2022/07/12 12:38:34;;;;;;;;;;;;;;;;;;5042710;28;19927;-43
2022/07/12 12:40:59;;;;;;;;;;;;;;;;;;5038779;28;19927;-41
2022/07/12 12:43:24;;;;;;;;;;;;;;;;;;5042729;28;19913;-42
2022/07/12 12:45:49;;;;;;;;;;;;;;;;;;5055464;28;19913;-41
2022/07/12 12:48:14;;;;;;;;;;;;;;;;;;5056665;28;19920;-42
2022/07/12 12:50:40;;;;;;;;;;;;;;;;;;5056002;28;19931;-41
2022/07/12 12:53:05;;;;;;;;;;;;;;;;;;5037839;28;19928;-41
2022/07/12 12:55:30;;;;;;;;;;;;;;;;;;5051793;28;19967;-42
2022/07/12 12:57:55;;;;;;;;;;;;;;;;;;5052871;28;19927;-44
2022/07/12 13:00:20;;;;;;;;;;;;;;;;;;5048663;28;20587;-43
2022/07/12 13:02:48;;;;;;;;;;;;;;;;;;5041897;28;20337;-45
2022/07/12 13:05:13;;;;;;;;;;;;;;;;;;5043585;28;19929;-42
2022/07/12 13:07:38;;;;;;;;;;;;;;;;;;5049570;28;19928;-43
2022/07/12 13:10:03;;;;;;;;;;;;;;;;;;5051300;28;19927;-43
2022/07/12 13:12:28;;;;;;;;;;;;;;;;;;5056860;28;19913;-44
2022/07/12 13:14:54;;;;;;;;;;;;;;;;;;5057675;28;20626;-43
2022/07/12 13:17:19;;;;;;;;;;;;;;;;;;5052766;28;19928;-43
2022/07/12 13:19:44;;;;;;;;;;;;;;;;;;5051880;28;19971;-43
2022/07/12 13:22:09;;;;;;;;;;;;;;;;;;5048691;28;19921;-42
2022/07/12 13:24:34;;;;;;;;;;;;;;;;;;5042826;28;19920;-43
2022/07/12 13:26:59;;;;;;;;;;;;;;;;;;5061300;28;19920;-43
2022/07/12 13:29:24;;;;;;;;;;;;;;;;;;5050372;28;19925;-43
2022/07/12 13:31:49;;;;;;;;;;;;;;;;;;5052463;28;19917;-44
2022/07/12 13:34:15;;;;;;;;;;;;;;;;;;5056377;28;20425;-41
2022/07/12 13:36:40;;;;;;;;;;;;;;;;;;5053195;28;19916;-44
2022/07/12 13:41:49;;;;;;;;;;;;;;;;;;5054566;28;19986;-44
2022/07/12 13:44:14;;;;;;;;;;;;;;;;;;5054343;28;19964;-43
2022/07/12 13:46:40;;;;;;;;;;;;;;;;;;5054288;28;19912;-44
2022/07/12 13:49:05;;;;;;;;;;;;;;;;;;5054226;28;20104;-43
2022/07/12 13:51:30;;;;;;;;;;;;;;;;;;5054201;28;19916;-43
2022/07/12 13:53:55;;;;;;;;;;;;;;;;;;5050832;28;19948;-43
2022/07/12 13:56:21;;;;;;;;;;;;;;;;;;5059938;28;20358;-44
2022/07/12 13:58:47;;;;;;;;;;;;;;;;;;5058363;28;19968;-44
2022/07/12 14:01:12;;;;;;;;;;;;;;;;;;5061122;28;20287;-43
2022/07/12 14:03:37;;;;;;;;;;;;;;;;;;5062676;28;20451;-42
2022/07/12 14:06:02;;;;;;;;;;;;;;;;;;5046754;28;20003;-43
2022/07/12 14:08:27;;;;;;;;;;;;;;;;;;5057808;28;19940;-43
2022/07/12 14:10:52;;;;;;;;;;;;;;;;;;5056442;28;19925;-45
2022/07/12 14:13:17;;;;;;;;;;;;;;;;;;5063202;28;19917;-44
2022/07/12 14:15:45;;;;;;;;;;;;;;;;;;5060173;28;19918;-43
2022/07/12 14:18:10;;;;;;;;;;;;;;;;;;5049248;28;19926;-43
2022/07/12 14:20:36;;;;;;;;;;;;;;;;;;5055895;28;20022;-43
2022/07/12 14:23:01;;;;;;;;;;;;;;;;;;5060905;28;19967;-43
2022/07/12 14:25:26;;;;;;;;;;;;;;;;;;5060990;28;19924;-45
2022/07/12 14:27:51;;;;;;;;;;;;;;;;;;5059518;28;19913;-43
2022/07/12 14:30:16;;;;;;;;;;;;;;;;;;5063007;28;19917;-44
2022/07/12 14:32:41;;;;;;;;;;;;;;;;;;5067760;28;19956;-43
2022/07/12 14:35:06;;;;;;;;;;;;;;;;;;5062902;28;20011;-43
2022/07/12 14:37:32;;;;;;;;;;;;;;;;;;5065200;28;19909;-44
2022/07/12 14:39:57;;;;;;;;;;;;;;;;;;5059679;28;19966;-43
2022/07/12 14:42:22;;;;;;;;;;;;;;;;;;5066669;28;19913;-44
2022/07/12 14:44:47;;;;;;;;;;;;;;;;;;5074036;28;19917;-43
2022/07/12 14:47:15;;;;;;;;;;;;;;;;;;5069708;28;19919;-45
2022/07/12 14:49:40;;;;;;;;;;;;;;;;;;5070329;28;20279;-43
2022/07/12 14:52:06;;;;;;;;;;;;;;;;;;5068330;28;19913;-43
2022/07/12 14:54:31;;;;;;;;;;;;;;;;;;5067324;28;20369;-42
2022/07/12 14:56:56;;;;;;;;;;;;;;;;;;5064412;28;20046;-44
2022/07/12 14:59:22;;;;;;;;;;;;;;;;;;5069615;28;19976;-42
2022/07/12 15:01:47;;;;;;;;;;;;;;;;;;5063806;28;19927;-43
2022/07/12 15:04:12;;;;;;;;;;;;;;;;;;5070846;28;19920;-42
2022/07/12 15:06:38;;;;;;;;;;;;;;;;;;5073093;28;19923;-44
2022/07/12 15:09:03;;;;;;;;;;;;;;;;;;5067304;28;19917;-43
2022/07/12 15:11:28;;;;;;;;;;;;;;;;;;5071830;28;20394;-43
2022/07/12 15:13:53;;;;;;;;;;;;;;;;;;5074734;28;20371;-42
2022/07/12 15:16:18;;;;;;;;;;;;;;;;;;5069097;28;20003;-43
2022/07/12 15:18:43;;;;;;;;;;;;;;;;;;5070418;28;19927;-43
2022/07/12 15:21:08;;;;;;;;;;;;;;;;;;5071142;28;20006;-44
2022/07/12 15:23:33;;;;;;;;;;;;;;;;;;5060315;28;19912;-43
2022/07/12 15:25:59;;;;;;;;;;;;;;;;;;5092541;28;19955;-43
2022/07/12 15:28:24;;;;;;;;;;;;;;;;;;5066520;28;19958;-44
2022/07/12 15:30:49;;;;;;;;;;;;;;;;;;5059095;28;19917;-43
2022/07/12 15:33:14;;;;;;;;;;;;;;;;;;5073170;28;20363;-43
2022/07/12 15:35:39;;;;;;;;;;;;;;;;;;5071793;28;19921;-43
2022/07/12 15:38:04;;;;;;;;;;;;;;;;;;5069398;28;19920;-43
2022/07/12 15:40:29;;;;;;;;;;;;;;;;;;5066945;28;19931;-44
2022/07/12 15:42:55;;;;;;;;;;;;;;;;;;5063442;28;19913;-43
2022/07/12 15:45:20;;;;;;;;;;;;;;;;;;5062525;28;19919;-43
2022/07/12 15:47:45;;;;;;;;;;;;;;;;;;5063185;28;19912;-43
2022/07/12 15:50:10;;;;;;;;;;;;;;;;;;5066774;28;19921;-43
2022/07/12 15:55:19;;;;;;;;;;;;;;;;;;5062467;28;19936;-43
2022/07/12 15:57:45;;;;;;;;;;;;;;;;;;5066643;28;19913;-44
2022/07/12 16:00:14;;;;;;;;;;;;;;;;;;5075050;28;20987;-43
2022/07/12 16:02:39;;;;;;;;;;;;;;;;;;5073368;28;20011;-42
2022/07/12 16:05:05;;;;;;;;;;;;;;;;;;5075491;28;19963;-45
2022/07/12 16:07:30;;;;;;;;;;;;;;;;;;5075684;28;19960;-43
2022/07/12 16:09:55;;;;;;;;;;;;;;;;;;5075521;28;19912;-42
2022/07/12 16:12:20;;;;;;;;;;;;;;;;;;5075621;28;19908;-42
2022/07/12 16:14:45;;;;;;;;;;;;;;;;;;5075576;28;19905;-43
2022/07/12 16:17:10;;;;;;;;;;;;;;;;;;5075591;28;19978;-41
2022/07/12 16:19:35;;;;;;;;;;;;;;;;;;5069984;28;19912;-43
2022/07/12 16:22:02;;;;;;;;;;;;;;;;;;4988122;28;20461;-43
2022/07/12 16:24:27;;;;;;;;;;;;;;;;;;4978070;28;19977;-43
2022/07/12 16:26:54;;;;;;;;;;;;;;;;;;5040038;28;19939;-41
2022/07/12 16:29:19;;;;;;;;;;;;;;;;;;5034919;28;21280;-41
2022/07/12 16:31:45;;;;;;;;;;;;;;;;;;4958406;28;20069;-43
2022/07/12 16:34:10;;;;;;;;;;;;;;;;;;5013463;28;19979;-43
2022/07/12 16:36:35;;;;;;;;;;;;;;;;;;5040489;28;20219;-41
2022/07/12 16:39:00;;;;;;;;;;;;;;;;;;5024368;28;20354;-44
2022/07/12 16:41:25;;;;;;;;;;;;;;;;;;5055522;28;20012;-44
2022/07/12 16:43:50;;;;;;;;;;;;;;;;;;5049200;28;20464;-43
2022/07/12 16:46:16;;;;;;;;;;;;;;;;;;5060099;28;19916;-44
2022/07/12 16:48:41;;;;;;;;;;;;;;;;;;5074051;28;19913;-42
2022/07/12 16:51:21;;;;;;;;;;;;;;;;;;5071677;28;19944;-44